OAL210 LDSP-LGAV
Flight info
| Callsign | OAL210 |
|---|---|
| Flight time | N/A |
| Altitude | 33000 |
| Route | SIPAL DCT PETAK DCT DOBAR DCT TALAS UM749 ROPOX |
| Aircraft | B738/M-SDE2E3FGHIRWXY/LB1 |
Departure
| Time | 2026-04-29 14:09 |
|---|---|
| Airport | Split Saint Jerome Airport (LDSP) |
Arrival
| Time | N/A |
|---|---|
| Airport | Athens Eleftherios Venizelos International Airport (LGAV) |
| Time | Latitude | Longitude | Altitude | Speed | Heading |
|---|---|---|---|---|---|
| 2026-04-29 14:02 | 43.53728 | 16.29858 | 78 ft | 0 kts | 136° |
| 2026-04-29 14:06 | 43.53726 | 16.29859 | 78 ft | 0 kts | 153° |
| 2026-04-29 14:06 | 43.53722 | 16.29858 | 78 ft | 1 kts | 185° |
| 2026-04-29 14:07 | 43.53704 | 16.29820 | 80 ft | 7 kts | 256° |
| 2026-04-29 14:07 | 43.53712 | 16.29737 | 83 ft | 11 kts | 266° |
| 2026-04-29 14:07 | 43.53690 | 16.29614 | 85 ft | 16 kts | 271° |
| 2026-04-29 14:07 | 43.53678 | 16.29428 | 83 ft | 23 kts | 245° |
| 2026-04-29 14:08 | 43.53575 | 16.29226 | 81 ft | 29 kts | 232° |
| 2026-04-29 14:08 | 43.53440 | 16.28985 | 80 ft | 34 kts | 232° |
| 2026-04-29 14:08 | 43.53294 | 16.28722 | 86 ft | 33 kts | 232° |
| 2026-04-29 14:08 | 43.53210 | 16.28613 | 89 ft | 2 kts | 52° |
| 2026-04-29 14:09 | 43.53262 | 16.28668 | 90 ft | 27 kts | 49° |
| 2026-04-29 14:09 | 43.53577 | 16.29229 | 83 ft | 119 kts | 52° |
| 2026-04-29 14:09 | 43.54241 | 16.30407 | 98 ft | 193 kts | 51° |
| 2026-04-29 14:09 | 43.55107 | 16.31916 | 1095 ft | 185 kts | 57° |
| 2026-04-29 14:10 | 43.55612 | 16.33417 | 2600 ft | 167 kts | 84° |
| 2026-04-29 14:10 | 43.55671 | 16.35026 | 3421 ft | 174 kts | 79° |
| 2026-04-29 14:10 | 43.56017 | 16.36775 | 3831 ft | 204 kts | 81° |
| 2026-04-29 14:10 | 43.56309 | 16.38840 | 4077 ft | 233 kts | 81° |
| 2026-04-29 14:11 | 43.56614 | 16.41141 | 4510 ft | 251 kts | 81° |
| 2026-04-29 14:11 | 43.56932 | 16.43579 | 5010 ft | 268 kts | 80° |
| 2026-04-29 14:11 | 43.57079 | 16.46195 | 5579 ft | 279 kts | 101° |
| 2026-04-29 14:11 | 43.56654 | 16.47864 | 6180 ft | 279 kts | 122° |
| 2026-04-29 14:12 | 43.54998 | 16.50605 | 7182 ft | 285 kts | 136° |
| 2026-04-29 14:12 | 43.53602 | 16.52539 | 8112 ft | 284 kts | 137° |
| 2026-04-29 14:12 | 43.52176 | 16.54472 | 8950 ft | 290 kts | 137° |
| 2026-04-29 14:12 | 43.51202 | 16.55792 | 9515 ft | 292 kts | 137° |
| 2026-04-29 14:13 | 43.49749 | 16.57770 | 10283 ft | 297 kts | 137° |
| 2026-04-29 14:13 | 43.48226 | 16.59852 | 10569 ft | 321 kts | 137° |
| 2026-04-29 14:13 | 43.46693 | 16.61954 | 10755 ft | 343 kts | 137° |
| 2026-04-29 14:13 | 43.44943 | 16.64362 | 10984 ft | 366 kts | 137° |
| 2026-04-29 14:14 | 43.43116 | 16.66885 | 11503 ft | 376 kts | 137° |
| 2026-04-29 14:14 | 43.41254 | 16.69463 | 12181 ft | 382 kts | 137° |
| 2026-04-29 14:14 | 43.39372 | 16.72071 | 12864 ft | 387 kts | 136° |
| 2026-04-29 14:14 | 43.37458 | 16.74722 | 13553 ft | 392 kts | 136° |
| 2026-04-29 14:15 | 43.35518 | 16.77406 | 14130 ft | 400 kts | 136° |
| 2026-04-29 14:15 | 43.33569 | 16.80096 | 14784 ft | 403 kts | 137° |
| 2026-04-29 14:15 | 43.31559 | 16.82873 | 15482 ft | 406 kts | 137° |
| 2026-04-29 14:15 | 43.29585 | 16.85595 | 16096 ft | 410 kts | 137° |
| 2026-04-29 14:16 | 43.27555 | 16.88389 | 16663 ft | 415 kts | 137° |
| 2026-04-29 14:16 | 43.25505 | 16.91209 | 17242 ft | 420 kts | 137° |
| 2026-04-29 14:16 | 43.23435 | 16.94054 | 17858 ft | 423 kts | 137° |
| 2026-04-29 14:16 | 43.21433 | 16.96803 | 18400 ft | 427 kts | 137° |
| 2026-04-29 14:17 | 43.19320 | 16.99702 | 18902 ft | 431 kts | 137° |
| 2026-04-29 14:17 | 43.17442 | 17.02276 | 19363 ft | 434 kts | 137° |
| 2026-04-29 14:17 | 43.15293 | 17.05217 | 19876 ft | 438 kts | 137° |
| 2026-04-29 14:17 | 43.13143 | 17.08224 | 20324 ft | 444 kts | 134° |
| 2026-04-29 14:18 | 43.11132 | 17.11469 | 20860 ft | 447 kts | 131° |
| 2026-04-29 14:18 | 43.09207 | 17.14760 | 21358 ft | 451 kts | 130° |
| 2026-04-29 14:18 | 43.07262 | 17.18150 | 21821 ft | 455 kts | 130° |
| 2026-04-29 14:18 | 43.05301 | 17.21568 | 22275 ft | 459 kts | 130° |
| 2026-04-29 14:19 | 43.03311 | 17.25014 | 22734 ft | 462 kts | 130° |
| 2026-04-29 14:19 | 43.01295 | 17.28475 | 23175 ft | 466 kts | 131° |
| 2026-04-29 14:19 | 42.99263 | 17.31941 | 23622 ft | 469 kts | 131° |
| 2026-04-29 14:19 | 42.97210 | 17.35427 | 23981 ft | 472 kts | 131° |
| 2026-04-29 14:20 | 42.95142 | 17.38927 | 24328 ft | 474 kts | 131° |
| 2026-04-29 14:20 | 42.93068 | 17.42430 | 24667 ft | 476 kts | 131° |
| 2026-04-29 14:20 | 42.90979 | 17.45951 | 25040 ft | 478 kts | 131° |
| 2026-04-29 14:20 | 42.88885 | 17.49476 | 25406 ft | 480 kts | 131° |
| 2026-04-29 14:21 | 42.86798 | 17.52988 | 25767 ft | 483 kts | 131° |
| 2026-04-29 14:21 | 42.84672 | 17.56563 | 26134 ft | 485 kts | 131° |
| 2026-04-29 14:21 | 42.82544 | 17.60137 | 26501 ft | 487 kts | 131° |
| 2026-04-29 14:21 | 42.80403 | 17.63729 | 26826 ft | 489 kts | 131° |
| 2026-04-29 14:22 | 42.78247 | 17.67340 | 27141 ft | 492 kts | 131° |
| 2026-04-29 14:22 | 42.76079 | 17.70968 | 27471 ft | 494 kts | 131° |
| 2026-04-29 14:22 | 42.73905 | 17.74599 | 27799 ft | 496 kts | 131° |
| 2026-04-29 14:22 | 42.71746 | 17.78202 | 28081 ft | 499 kts | 131° |
| 2026-04-29 14:23 | 42.69545 | 17.81872 | 28365 ft | 501 kts | 131° |
| 2026-04-29 14:23 | 42.67329 | 17.85561 | 28684 ft | 503 kts | 131° |
| 2026-04-29 14:23 | 42.65119 | 17.89238 | 29116 ft | 502 kts | 131° |
| 2026-04-29 14:23 | 42.62910 | 17.92909 | 29566 ft | 500 kts | 131° |
| 2026-04-29 14:24 | 42.60711 | 17.96558 | 30046 ft | 498 kts | 131° |
| 2026-04-29 14:24 | 42.58552 | 18.00133 | 30415 ft | 497 kts | 131° |
| 2026-04-29 14:24 | 42.56403 | 18.03686 | 30794 ft | 496 kts | 131° |
| 2026-04-29 14:24 | 42.54219 | 18.07297 | 31114 ft | 495 kts | 131° |
| 2026-04-29 14:25 | 42.52061 | 18.10860 | 31406 ft | 495 kts | 131° |
| 2026-04-29 14:25 | 42.49872 | 18.14468 | 31680 ft | 496 kts | 131° |
| 2026-04-29 14:25 | 42.47680 | 18.18077 | 32017 ft | 495 kts | 131° |
| 2026-04-29 14:25 | 42.45493 | 18.21675 | 32398 ft | 493 kts | 131° |
| 2026-04-29 14:26 | 42.43315 | 18.25254 | 32768 ft | 492 kts | 131° |
| 2026-04-29 14:26 | 42.41135 | 18.28832 | 33069 ft | 492 kts | 131° |
| 2026-04-29 14:26 | 42.36747 | 18.36017 | 33076 ft | 497 kts | 131° |
| 2026-04-29 14:27 | 42.32379 | 18.43154 | 33046 ft | 491 kts | 131° |
| 2026-04-29 14:28 | 42.25846 | 18.53796 | 33075 ft | 491 kts | 131° |
| 2026-04-29 14:28 | 42.21481 | 18.60884 | 33072 ft | 491 kts | 131° |
| 2026-04-29 14:29 | 42.17104 | 18.67975 | 33060 ft | 493 kts | 131° |
| 2026-04-29 14:29 | 42.12706 | 18.75084 | 33055 ft | 493 kts | 131° |
| 2026-04-29 14:30 | 42.08301 | 18.82188 | 33049 ft | 494 kts | 131° |
| 2026-04-29 14:30 | 42.03910 | 18.89252 | 33042 ft | 494 kts | 131° |
| 2026-04-29 14:31 | 41.99574 | 18.96213 | 33049 ft | 494 kts | 131° |
| 2026-04-29 14:31 | 41.95296 | 19.03063 | 33047 ft | 494 kts | 131° |
| 2026-04-29 14:32 | 41.90882 | 19.10116 | 33048 ft | 493 kts | 131° |
| 2026-04-29 14:32 | 41.86470 | 19.17146 | 33050 ft | 493 kts | 131° |
| 2026-04-29 14:33 | 41.82055 | 19.24171 | 33049 ft | 492 kts | 131° |
| 2026-04-29 14:33 | 41.77700 | 19.31263 | 33030 ft | 493 kts | 126° |
| 2026-04-29 14:34 | 41.74453 | 19.39250 | 33062 ft | 492 kts | 116° |
| 2026-04-29 14:34 | 41.71502 | 19.47525 | 33055 ft | 491 kts | 116° |
| 2026-04-29 14:35 | 41.68520 | 19.55761 | 33055 ft | 491 kts | 116° |
| 2026-04-29 14:35 | 41.65501 | 19.63944 | 33056 ft | 491 kts | 117° |
| 2026-04-29 14:36 | 41.62502 | 19.72009 | 33070 ft | 491 kts | 117° |
| 2026-04-29 14:36 | 41.59451 | 19.80194 | 33071 ft | 492 kts | 117° |
| 2026-04-29 14:37 | 41.56390 | 19.88391 | 33069 ft | 493 kts | 117° |
| 2026-04-29 14:37 | 41.53325 | 19.96578 | 33063 ft | 493 kts | 117° |
| 2026-04-29 14:38 | 41.50333 | 20.04546 | 33054 ft | 493 kts | 117° |
| 2026-04-29 14:38 | 41.47258 | 20.12710 | 33066 ft | 492 kts | 117° |
| 2026-04-29 14:39 | 41.44168 | 20.20895 | 33061 ft | 494 kts | 117° |
| 2026-04-29 14:39 | 41.41069 | 20.29078 | 33052 ft | 495 kts | 117° |
| 2026-04-29 14:40 | 41.37966 | 20.37252 | 33041 ft | 494 kts | 117° |
| 2026-04-29 14:40 | 41.34879 | 20.45357 | 33049 ft | 493 kts | 117° |
| 2026-04-29 14:41 | 41.32392 | 20.53838 | 33037 ft | 492 kts | 102° |
| 2026-04-29 14:41 | 41.30899 | 20.62720 | 33069 ft | 491 kts | 101° |
| 2026-04-29 14:42 | 41.29422 | 20.71600 | 33081 ft | 491 kts | 102° |
| 2026-04-29 14:42 | 41.27892 | 20.80467 | 33079 ft | 491 kts | 102° |
| 2026-04-29 14:43 | 41.26330 | 20.89311 | 33078 ft | 491 kts | 102° |
| 2026-04-29 14:43 | 41.24767 | 20.98100 | 33057 ft | 492 kts | 102° |
| 2026-04-29 14:44 | 41.23247 | 21.06617 | 33041 ft | 492 kts | 102° |
| 2026-04-29 14:44 | 41.21664 | 21.15459 | 33028 ft | 492 kts | 102° |
| 2026-04-29 14:45 | 41.20075 | 21.24291 | 33017 ft | 492 kts | 102° |
| 2026-04-29 14:45 | 41.18473 | 21.33138 | 33002 ft | 493 kts | 103° |
| 2026-04-29 14:46 | 41.16867 | 21.41989 | 32998 ft | 493 kts | 103° |
| 2026-04-29 14:46 | 41.15263 | 21.50780 | 33008 ft | 493 kts | 103° |
| 2026-04-29 14:47 | 41.13641 | 21.59630 | 33016 ft | 493 kts | 103° |
| 2026-04-29 14:47 | 41.12012 | 21.68466 | 33011 ft | 493 kts | 103° |
| 2026-04-29 14:48 | 41.10381 | 21.77298 | 33015 ft | 493 kts | 103° |
| 2026-04-29 14:48 | 41.08685 | 21.86120 | 33010 ft | 494 kts | 109° |
| 2026-04-29 14:48 | 41.07221 | 21.90231 | 33026 ft | 493 kts | 123° |
| 2026-04-29 14:49 | 41.05130 | 21.93823 | 33036 ft | 491 kts | 135° |
| 2026-04-29 14:49 | 41.02587 | 21.96704 | 33033 ft | 487 kts | 147° |
| 2026-04-29 14:49 | 40.99893 | 21.99141 | 33048 ft | 485 kts | 148° |
| 2026-04-29 14:50 | 40.94490 | 22.03961 | 33030 ft | 485 kts | 148° |
| 2026-04-29 14:50 | 40.88918 | 22.09013 | 33048 ft | 486 kts | 147° |
| 2026-04-29 14:51 | 40.83356 | 22.14114 | 33035 ft | 487 kts | 147° |
| 2026-04-29 14:51 | 40.77796 | 22.19221 | 33044 ft | 487 kts | 147° |
| 2026-04-29 14:52 | 40.72262 | 22.24292 | 33052 ft | 487 kts | 147° |
| 2026-04-29 14:52 | 40.66687 | 22.29387 | 33053 ft | 487 kts | 147° |
| 2026-04-29 14:53 | 40.61117 | 22.34463 | 33046 ft | 487 kts | 147° |
| 2026-04-29 14:53 | 40.55537 | 22.39537 | 33051 ft | 487 kts | 147° |
| 2026-04-29 14:54 | 40.49990 | 22.44574 | 33056 ft | 487 kts | 147° |
| 2026-04-29 14:54 | 40.44407 | 22.49633 | 33047 ft | 487 kts | 147° |
| 2026-04-29 14:55 | 40.38821 | 22.54684 | 33047 ft | 487 kts | 147° |
| 2026-04-29 14:55 | 40.33232 | 22.59729 | 33049 ft | 487 kts | 147° |
| 2026-04-29 14:56 | 40.27683 | 22.64728 | 33058 ft | 486 kts | 147° |
| 2026-04-29 14:56 | 40.22100 | 22.69755 | 33061 ft | 486 kts | 147° |
| 2026-04-29 14:57 | 40.16523 | 22.74767 | 33063 ft | 486 kts | 147° |
| 2026-04-29 14:57 | 40.10956 | 22.79764 | 33056 ft | 486 kts | 147° |
| 2026-04-29 14:58 | 40.05377 | 22.84756 | 33054 ft | 485 kts | 147° |
| 2026-04-29 14:58 | 39.99853 | 22.89689 | 33056 ft | 485 kts | 147° |
| 2026-04-29 14:59 | 39.94284 | 22.94653 | 33060 ft | 484 kts | 147° |
| 2026-04-29 14:59 | 39.88757 | 22.99572 | 33057 ft | 484 kts | 147° |
| 2026-04-29 15:00 | 39.83302 | 23.04415 | 33040 ft | 484 kts | 147° |
| 2026-04-29 15:00 | 39.78682 | 23.08510 | 33054 ft | 484 kts | 147° |
| 2026-04-29 15:01 | 39.73111 | 23.13437 | 33071 ft | 484 kts | 147° |
| 2026-04-29 15:01 | 39.67530 | 23.18366 | 33062 ft | 484 kts | 147° |
| 2026-04-29 15:02 | 39.61947 | 23.23289 | 33053 ft | 484 kts | 147° |
| 2026-04-29 15:02 | 39.56405 | 23.28164 | 33050 ft | 484 kts | 147° |
| 2026-04-29 15:03 | 39.50830 | 23.33057 | 33060 ft | 484 kts | 147° |
| 2026-04-29 15:03 | 39.45246 | 23.37950 | 33060 ft | 484 kts | 147° |
| 2026-04-29 15:04 | 39.39667 | 23.42827 | 33060 ft | 484 kts | 147° |
| 2026-04-29 15:04 | 39.34158 | 23.47635 | 33054 ft | 484 kts | 147° |
| 2026-04-29 15:05 | 39.28573 | 23.52501 | 33048 ft | 483 kts | 147° |
| 2026-04-29 15:05 | 39.22996 | 23.57350 | 33049 ft | 483 kts | 147° |
| 2026-04-29 15:06 | 39.17059 | 23.61269 | 33053 ft | 478 kts | 164° |
| 2026-04-29 15:06 | 39.10568 | 23.62853 | 33062 ft | 473 kts | 177° |